Semirio — V7MN4 — position and weather

sailwx.info

Track history (hours):
 
Tides and Currents Weather Stations Pressure Air Temp Water Temp Dewpoint Dewpoint Depression Visibility Wind Speed Wind Dir Waves Ship Positions

Semirio

Last reported at 2018-Jun-17 01:30 UTC. Time now 2018-Jun-23 19:54 UTC.
Position N 34°03' W 014°54'.

Length 289 m; draft 11.1 m.

Type: Cargo ship. MMSI: 538002875.

Date/timePositionNaut miles runAvg speedWind from/ knotsBaromVisibWave heightAir tempDewpointWater temp
2018-Jun-17 01:30N 34°03' W 014°54'10812.8
2018-Jun-16 17:03N 34°34' W 012°49'113.2
2018-Jun-16 16:59N 34°34' W 012°48'1212.5
2018-Jun-16 16:03N 34°38' W 012°34'112.5
2018-Jun-16 15:57N 34°38' W 012°33'912.5
2018-Jun-16 15:14N 34°41' W 012°22'312.7
2018-Jun-16 15:01N 34°42' W 012°19'4412.5
2018-Jun-16 11:31N 34°55' W 011°28'012.3
2018-Jun-16 11:30N 34°55' W 011°28'712.2
2018-Jun-16 10:55N 34°57' W 011°20'4212.6
2018-Jun-16 07:33N 35°09' W 010°31'112.2
2018-Jun-16 07:29N 35°09' W 010°29'712.1
2018-Jun-16 06:54N 35°12' W 010°21'512.3
2018-Jun-16 06:30N 35°13' W 010°16'812.4
2018-Jun-16 05:51N 35°16' W 010°06'412.5
2018-Jun-16 05:30N 35°17' W 010°01'612.5
2018-Jun-16 05:00N 35°19' W 009°54'1312.5
2018-Jun-16 03:59N 35°22' W 009°39'3712.1
2018-Jun-16 00:57N 35°30' W 008°55'512.0
2018-Jun-16 00:30N 35°31' W 008°49'612.0
2018-Jun-15 23:59N 35°32' W 008°41'612.1
2018-Jun-15 23:29N 35°34' W 008°34'612.1
2018-Jun-15 23:00N 35°35' W 008°27'612.0
2018-Jun-15 22:30N 35°37' W 008°19'612.3
2018-Jun-15 21:58N 35°38' W 008°12'612.4
2018-Jun-15 21:29N 35°39' W 008°05'4212.9
2018-Jun-15 18:13N 35°49' W 007°14'313.3
2018-Jun-15 17:59N 35°50' W 007°10'613.3
2018-Jun-15 17:30N 35°51' W 007°03'7012.6
2018-Jun-15 11:57N 35°58' W 005°37'511.9
2018-Jun-15 11:30N 35°60' W 005°31'611.0
2018-Jun-15 11:00N 36°02' W 005°24'5 9.8
2018-Jun-15 10:31N 36°06' W 005°22'0 0.4
2018-Jun-15 09:56N 36°06' W 005°22'0 0.2
2018-Jun-15 08:35N 36°06' W 005°22'0 0.1
2018-Jun-15 08:23N 36°06' W 005°22'0 0.1
2018-Jun-15 07:59N 36°06' W 005°22'0 0.0
2018-Jun-15 07:29N 36°06' W 005°22'0 0.0
2018-Jun-15 06:59N 36°06' W 005°22'0 0.0
2018-Jun-15 05:59N 36°06' W 005°22'0 0.3
2018-Jun-15 05:29N 36°06' W 005°22'0 0.4
2018-Jun-15 04:59N 36°06' W 005°21'0 0.1
2018-Jun-15 04:26N 36°07' W 005°21'0 0.0
2018-Jun-15 03:59N 36°07' W 005°21'0 0.0
2018-Jun-15 03:29N 36°07' W 005°21'0 0.3
2018-Jun-15 02:53N 36°06' W 005°22'0 0.3
2018-Jun-15 02:29N 36°06' W 005°21'0 0.1
2018-Jun-15 01:59N 36°06' W 005°21'0 0.0
2018-Jun-15 01:29N 36°06' W 005°21'0 0.2
2018-Jun-15 00:59N 36°06' W 005°21'0 0.1
2018-Jun-15 00:29N 36°06' W 005°21'0 0.1
2018-Jun-14 23:59N 36°06' W 005°21'0 0.3
2018-Jun-14 23:29N 36°07' W 005°21'0 0.0
2018-Jun-14 22:56N 36°07' W 005°21'0 0.1
2018-Jun-14 22:20N 36°07' W 005°21'0 0.1
2018-Jun-14 21:59N 36°07' W 005°21'0 0.1
2018-Jun-14 21:29N 36°07' W 005°22'0 0.1
2018-Jun-14 20:56N 36°07' W 005°22'0 0.6
2018-Jun-14 20:29N 36°06' W 005°21'0 0.4
2018-Jun-14 19:59N 36°06' W 005°22'0 0.2
2018-Jun-14 19:29N 36°06' W 005°22'0 0.4
2018-Jun-14 19:00N 36°06' W 005°22'2 4.3
2018-Jun-14 18:30N 36°05' W 005°19'3 5.8
2018-Jun-14 18:00N 36°05' W 005°16'2 3.5
2018-Jun-14 17:30N 36°05' W 005°18'1 2.6
2018-Jun-14 17:00N 36°05' W 005°20'2 4.8
2018-Jun-14 16:30N 36°05' W 005°17'4 8.5
2018-Jun-14 16:00N 36°08' W 005°12'3 5.3
2018-Jun-14 15:21N 36°10' W 005°09'1 1.7
2018-Jun-14 15:00N 36°10' W 005°10'1 1.2
2018-Jun-14 14:30N 36°10' W 005°10'12 1.4
2018-Jun-14 06:05N 36°05' W 004°57'0 3.0
2018-Jun-14 05:59N 36°05' W 004°57'2 3.0
2018-Jun-14 05:27N 36°06' W 004°59'2 2.8
2018-Jun-14 04:35N 36°06' W 005°02'0 2.5
2018-Jun-14 04:30N 36°06' W 005°02'1 2.6
2018-Jun-14 04:00N 36°07' W 005°04'3 5.6
2018-Jun-14 03:29N 36°08' W 005°07'510.7
2018-Jun-14 03:00N 36°10' W 005°13'1 1.4
2018-Jun-14 02:30N 36°10' W 005°14'1 1.2
2018-Jun-14 02:00N 36°10' W 005°13'1 1.1
2018-Jun-14 01:30N 36°09' W 005°13'1 1.1
2018-Jun-14 00:59N 36°09' W 005°12'1 2.8
2018-Jun-14 00:30N 36°09' W 005°11'26211.3
2018-Jun-13 01:12N 36°43' E 000°12'311.6
2018-Jun-13 00:58N 36°43' E 000°16'2211.6
2018-Jun-12 23:02N 36°50' E 000°42'011.8
2018-Jun-12 23:00N 36°50' E 000°43'3211.7
2018-Jun-12 20:16N 36°60' E 001°21'311.7
2018-Jun-12 19:59N 37°01' E 001°25'611.9
2018-Jun-12 19:30N 37°02' E 001°32'611.8
2018-Jun-12 19:00N 37°04' E 001°39'611.7
2018-Jun-12 18:29N 37°06' E 001°46'511.6
2018-Jun-12 18:00N 37°07' E 001°53'611.6
2018-Jun-12 17:30N 37°07' E 002°00'611.5
2018-Jun-12 17:00N 37°08' E 002°07'611.5
2018-Jun-12 16:30N 37°08' E 002°15'611.5
2018-Jun-12 16:00N 37°09' E 002°22'611.3
2018-Jun-12 15:28N 37°11' E 002°29'15412.0
2018-Jun-12 02:37N 37°24' E 005°42'26112.5
2018-Jun-11 05:42N 37°28' E 011°10'  
2018-Jun-07 22:39N 32°19' E 030°50'413.1
2018-Jun-07 22:22N 32°18' E 030°54'513.4
2018-Jun-07 22:00N 32°16' E 030°59'713.4
2018-Jun-07 21:30N 32°12' E 031°06'6912.8
2018-Jun-07 16:06N 31°33' E 032°13'1510.0
2018-Jun-07 14:36N 31°20' E 032°23'1 6.6
2018-Jun-07 14:30N 31°20' E 032°23'4 8.9
2018-Jun-07 14:00N 31°15' E 032°21'6 7.8
2018-Jun-07 13:15N 31°10' E 032°20'6 8.4
2018-Jun-07 12:33N 31°04' E 032°19'0 9.4
2018-Jun-07 12:30N 31°04' E 032°19'5 9.3
2018-Jun-07 12:00N 30°59' E 032°19'4 9.0
2018-Jun-07 11:30N 30°54' E 032°19'  
Track history (hours):
 
Tides and Currents Weather Stations Pressure Air Temp Water Temp Dewpoint Dewpoint Depression Visibility Wind Speed Wind Dir Waves Ship Positions

Semirio

Last reported at 2018-Jun-17 01:30 UTC. Time now 2018-Jun-23 19:54 UTC.
Position N 34°03' W 014°54'.

Length 289 m; draft 11.1 m.

Type: Cargo ship. MMSI: 538002875.

Date/timePositionNaut miles runAvg speedWind from/ knotsBaromVisibWave heightAir tempDewpointWater temp
2018-Jun-17 01:30N 34°03' W 014°54'10812.8
2018-Jun-16 17:03N 34°34' W 012°49'113.2
2018-Jun-16 16:59N 34°34' W 012°48'1212.5
2018-Jun-16 16:03N 34°38' W 012°34'112.5
2018-Jun-16 15:57N 34°38' W 012°33'912.5
2018-Jun-16 15:14N 34°41' W 012°22'312.7
2018-Jun-16 15:01N 34°42' W 012°19'4412.5
2018-Jun-16 11:31N 34°55' W 011°28'012.3
2018-Jun-16 11:30N 34°55' W 011°28'712.2
2018-Jun-16 10:55N 34°57' W 011°20'4212.6
2018-Jun-16 07:33N 35°09' W 010°31'112.2
2018-Jun-16 07:29N 35°09' W 010°29'712.1
2018-Jun-16 06:54N 35°12' W 010°21'512.3
2018-Jun-16 06:30N 35°13' W 010°16'812.4
2018-Jun-16 05:51N 35°16' W 010°06'412.5
2018-Jun-16 05:30N 35°17' W 010°01'612.5
2018-Jun-16 05:00N 35°19' W 009°54'1312.5
2018-Jun-16 03:59N 35°22' W 009°39'3712.1
2018-Jun-16 00:57N 35°30' W 008°55'512.0
2018-Jun-16 00:30N 35°31' W 008°49'612.0
2018-Jun-15 23:59N 35°32' W 008°41'612.1
2018-Jun-15 23:29N 35°34' W 008°34'612.1
2018-Jun-15 23:00N 35°35' W 008°27'612.0
2018-Jun-15 22:30N 35°37' W 008°19'612.3
2018-Jun-15 21:58N 35°38' W 008°12'612.4
2018-Jun-15 21:29N 35°39' W 008°05'4212.9
2018-Jun-15 18:13N 35°49' W 007°14'313.3
2018-Jun-15 17:59N 35°50' W 007°10'613.3
2018-Jun-15 17:30N 35°51' W 007°03'7012.6
2018-Jun-15 11:57N 35°58' W 005°37'511.9
2018-Jun-15 11:30N 35°60' W 005°31'611.0
2018-Jun-15 11:00N 36°02' W 005°24'5 9.8
2018-Jun-15 10:31N 36°06' W 005°22'0 0.4
2018-Jun-15 09:56N 36°06' W 005°22'0 0.2
2018-Jun-15 08:35N 36°06' W 005°22'0 0.1
2018-Jun-15 08:23N 36°06' W 005°22'0 0.1
2018-Jun-15 07:59N 36°06' W 005°22'0 0.0
2018-Jun-15 07:29N 36°06' W 005°22'0 0.0
2018-Jun-15 06:59N 36°06' W 005°22'0 0.0
2018-Jun-15 05:59N 36°06' W 005°22'0 0.3
2018-Jun-15 05:29N 36°06' W 005°22'0 0.4
2018-Jun-15 04:59N 36°06' W 005°21'0 0.1
2018-Jun-15 04:26N 36°07' W 005°21'0 0.0
2018-Jun-15 03:59N 36°07' W 005°21'0 0.0
2018-Jun-15 03:29N 36°07' W 005°21'0 0.3
2018-Jun-15 02:53N 36°06' W 005°22'0 0.3
2018-Jun-15 02:29N 36°06' W 005°21'0 0.1
2018-Jun-15 01:59N 36°06' W 005°21'0 0.0
2018-Jun-15 01:29N 36°06' W 005°21'0 0.2
2018-Jun-15 00:59N 36°06' W 005°21'0 0.1
2018-Jun-15 00:29N 36°06' W 005°21'0 0.1
2018-Jun-14 23:59N 36°06' W 005°21'0 0.3
2018-Jun-14 23:29N 36°07' W 005°21'0 0.0
2018-Jun-14 22:56N 36°07' W 005°21'0 0.1
2018-Jun-14 22:20N 36°07' W 005°21'0 0.1
2018-Jun-14 21:59N 36°07' W 005°21'0 0.1
2018-Jun-14 21:29N 36°07' W 005°22'0 0.1
2018-Jun-14 20:56N 36°07' W 005°22'0 0.6
2018-Jun-14 20:29N 36°06' W 005°21'0 0.4
2018-Jun-14 19:59N 36°06' W 005°22'0 0.2
2018-Jun-14 19:29N 36°06' W 005°22'0 0.4
2018-Jun-14 19:00N 36°06' W 005°22'2 4.3
2018-Jun-14 18:30N 36°05' W 005°19'3 5.8
2018-Jun-14 18:00N 36°05' W 005°16'2 3.5
2018-Jun-14 17:30N 36°05' W 005°18'1 2.6
2018-Jun-14 17:00N 36°05' W 005°20'2 4.8
2018-Jun-14 16:30N 36°05' W 005°17'4 8.5
2018-Jun-14 16:00N 36°08' W 005°12'3 5.3
2018-Jun-14 15:21N 36°10' W 005°09'1 1.7
2018-Jun-14 15:00N 36°10' W 005°10'1 1.2
2018-Jun-14 14:30N 36°10' W 005°10'12 1.4
2018-Jun-14 06:05N 36°05' W 004°57'0 3.0
2018-Jun-14 05:59N 36°05' W 004°57'2 3.0
2018-Jun-14 05:27N 36°06' W 004°59'2 2.8
2018-Jun-14 04:35N 36°06' W 005°02'0 2.5
2018-Jun-14 04:30N 36°06' W 005°02'1 2.6
2018-Jun-14 04:00N 36°07' W 005°04'3 5.6
2018-Jun-14 03:29N 36°08' W 005°07'510.7
2018-Jun-14 03:00N 36°10' W 005°13'1 1.4
2018-Jun-14 02:30N 36°10' W 005°14'1 1.2
2018-Jun-14 02:00N 36°10' W 005°13'1 1.1
2018-Jun-14 01:30N 36°09' W 005°13'1 1.1
2018-Jun-14 00:59N 36°09' W 005°12'1 2.8
2018-Jun-14 00:30N 36°09' W 005°11'26211.3
2018-Jun-13 01:12N 36°43' E 000°12'311.6
2018-Jun-13 00:58N 36°43' E 000°16'2211.6
2018-Jun-12 23:02N 36°50' E 000°42'011.8
2018-Jun-12 23:00N 36°50' E 000°43'3211.7
2018-Jun-12 20:16N 36°60' E 001°21'311.7
2018-Jun-12 19:59N 37°01' E 001°25'611.9
2018-Jun-12 19:30N 37°02' E 001°32'611.8
2018-Jun-12 19:00N 37°04' E 001°39'611.7
2018-Jun-12 18:29N 37°06' E 001°46'511.6
2018-Jun-12 18:00N 37°07' E 001°53'611.6
2018-Jun-12 17:30N 37°07' E 002°00'611.5
2018-Jun-12 17:00N 37°08' E 002°07'611.5
2018-Jun-12 16:30N 37°08' E 002°15'611.5
2018-Jun-12 16:00N 37°09' E 002°22'611.3
2018-Jun-12 15:28N 37°11' E 002°29'15412.0
2018-Jun-12 02:37N 37°24' E 005°42'26112.5
2018-Jun-11 05:42N 37°28' E 011°10'  
2018-Jun-07 22:39N 32°19' E 030°50'413.1
2018-Jun-07 22:22N 32°18' E 030°54'513.4
2018-Jun-07 22:00N 32°16' E 030°59'713.4
2018-Jun-07 21:30N 32°12' E 031°06'6912.8
2018-Jun-07 16:06N 31°33' E 032°13'1510.0
2018-Jun-07 14:36N 31°20' E 032°23'1 6.6
2018-Jun-07 14:30N 31°20' E 032°23'4 8.9
2018-Jun-07 14:00N 31°15' E 032°21'6 7.8
2018-Jun-07 13:15N 31°10' E 032°20'6 8.4
2018-Jun-07 12:33N 31°04' E 032°19'0 9.4
2018-Jun-07 12:30N 31°04' E 032°19'5 9.3
2018-Jun-07 12:00N 30°59' E 032°19'4 9.0
2018-Jun-07 11:30N 30°54' E 032°19'  

Dump ship's entire track history